createdAt,value
2019-04-06T00:00:31.201Z,44.17
2019-04-06T00:02:57.226Z,44.03
2019-04-06T00:05:23.225Z,43.95
2019-04-06T00:07:49.224Z,44.14
2019-04-06T00:10:15.242Z,44.17
2019-04-06T00:12:41.277Z,43.99
2019-04-06T00:15:07.268Z,43.71
2019-04-06T00:17:33.287Z,44.05
2019-04-06T00:19:59.295Z,43.93
2019-04-06T00:22:25.306Z,43.91
2019-04-06T00:24:51.304Z,43.77
2019-04-06T00:27:17.320Z,43.93
2019-04-06T00:29:43.431Z,43.89
2019-04-06T00:32:09.342Z,43.85
2019-04-06T00:34:35.364Z,43.87
2019-04-06T00:37:01.403Z,43.75
2019-04-06T00:39:27.385Z,43.69
2019-04-06T00:41:53.398Z,43.65
2019-04-06T00:44:19.387Z,43.58
2019-04-06T00:46:45.390Z,43.66
2019-04-06T00:49:11.381Z,43.80
2019-04-06T00:51:37.409Z,43.43
2019-04-06T00:54:03.451Z,43.48
2019-04-06T00:56:29.475Z,43.53
2019-04-06T00:58:55.504Z,43.36
2019-04-06T01:01:21.590Z,43.63
2019-04-06T01:03:47.531Z,43.44
2019-04-06T01:06:13.582Z,43.25
2019-04-06T01:08:39.570Z,43.66
2019-04-06T01:11:05.625Z,43.19
2019-04-06T01:13:31.643Z,43.67
2019-04-06T01:15:57.644Z,43.29
2019-04-06T01:18:23.658Z,43.39
2019-04-06T01:20:49.672Z,43.19
2019-04-06T01:23:15.694Z,43.34
2019-04-06T01:25:41.696Z,43.28
2019-04-06T01:28:07.764Z,43.48
2019-04-06T01:30:33.727Z,43.46
2019-04-06T01:32:59.724Z,43.32
2019-04-06T01:35:25.726Z,43.38
2019-04-06T01:37:51.718Z,43.21
2019-04-06T01:40:17.740Z,42.92
2019-04-06T01:42:43.736Z,43.01
2019-04-06T01:45:09.777Z,43.24
2019-04-06T01:47:35.840Z,42.98
2019-04-06T01:50:01.746Z,42.92
2019-04-06T01:52:27.781Z,43.32
2019-04-06T01:54:53.745Z,43.09
2019-04-06T01:57:19.871Z,43.23
2019-04-06T01:59:45.781Z,42.91
2019-04-06T02:02:11.802Z,43.00
2019-04-06T02:04:37.791Z,42.94
2019-04-06T02:07:03.805Z,43.06
2019-04-06T02:09:29.825Z,43.22
2019-04-06T02:11:55.868Z,43.33
2019-04-06T02:14:21.870Z,42.96
2019-04-06T02:16:47.888Z,43.01
2019-04-06T02:19:13.915Z,43.24
2019-04-06T02:21:39.906Z,43.11
2019-04-06T02:24:05.928Z,43.06
2019-04-06T02:26:31.925Z,43.06
2019-04-06T02:28:57.982Z,42.89
2019-04-06T02:31:23.968Z,43.14
2019-04-06T02:33:49.985Z,42.85
2019-04-06T02:36:16.008Z,42.83
2019-04-06T02:38:42.055Z,42.82
2019-04-06T02:41:08.021Z,43.17
2019-04-06T02:43:34.065Z,43.17
2019-04-06T02:46:00.051Z,43.01
2019-04-06T02:48:26.043Z,42.87
2019-04-06T02:50:52.043Z,42.90
2019-04-06T02:53:18.060Z,43.05
2019-04-06T02:55:44.079Z,42.77
2019-04-06T02:58:10.071Z,43.19
2019-04-06T03:00:36.109Z,42.83
2019-04-06T03:03:02.130Z,43.06
2019-04-06T03:05:28.322Z,43.11
2019-04-06T03:07:54.176Z,43.11
2019-04-06T03:10:20.205Z,42.69
2019-04-06T03:12:46.185Z,43.02
2019-04-06T03:15:12.284Z,43.07
2019-04-06T03:17:38.192Z,42.83
2019-04-06T03:20:04.223Z,43.07
2019-04-06T03:22:30.252Z,43.11
2019-04-06T03:24:56.263Z,42.96
2019-04-06T03:27:22.283Z,43.10
2019-04-06T03:29:57.488Z,43.10
2019-04-06T03:32:14.569Z,43.06
2019-04-06T03:34:40.312Z,42.83
2019-04-06T03:37:06.312Z,43.17
2019-04-06T03:39:32.533Z,43.16
2019-04-06T03:41:58.338Z,43.09
2019-04-06T03:44:24.370Z,43.12
2019-04-06T03:46:50.389Z,43.06
2019-04-06T03:49:16.408Z,43.07
2019-04-06T03:51:42.409Z,43.09
2019-04-06T03:54:08.562Z,42.89
2019-04-06T03:56:34.411Z,42.91
2019-04-06T03:59:00.409Z,42.83
2019-04-06T04:01:26.446Z,43.14
2019-04-06T04:03:52.423Z,43.14
2019-04-06T04:06:18.440Z,43.27
2019-04-06T04:08:44.451Z,43.06
2019-04-06T04:11:10.573Z,43.11
2019-04-06T04:13:36.718Z,43.27
2019-04-06T04:16:02.494Z,43.34
2019-04-06T04:18:28.506Z,43.23
2019-04-06T04:20:54.516Z,43.33
2019-04-06T04:23:20.536Z,43.42
2019-04-06T04:25:46.754Z,43.35
2019-04-06T04:28:12.785Z,43.36
2019-04-06T04:30:38.918Z,43.51
2019-04-06T04:33:04.604Z,43.41
2019-04-06T04:35:30.608Z,43.39
2019-04-06T04:37:56.648Z,43.58
2019-04-06T04:40:22.666Z,43.65
2019-04-06T04:42:48.849Z,43.83
2019-04-06T04:45:14.682Z,43.85
2019-04-06T04:47:40.679Z,43.72
2019-04-06T04:50:06.875Z,43.78
2019-04-06T04:52:32.967Z,43.74
2019-04-06T04:54:58.747Z,43.75
2019-04-06T04:57:24.908Z,43.76
2019-04-06T04:59:50.997Z,43.78
2019-04-06T05:02:17.073Z,43.80
2019-04-06T05:04:42.994Z,43.77
2019-04-06T05:07:09.031Z,43.79
2019-04-06T05:09:35.035Z,43.85
2019-04-06T05:12:01.037Z,43.85
2019-04-06T05:14:27.059Z,43.85
2019-04-06T05:16:53.075Z,43.83
2019-04-06T05:19:19.111Z,43.87
2019-04-06T05:21:45.103Z,43.90
2019-04-06T05:24:11.127Z,43.91
2019-04-06T05:26:38.156Z,43.90
2019-04-06T05:29:03.142Z,43.94
2019-04-06T05:31:29.293Z,43.92
2019-04-06T05:33:55.176Z,43.94
2019-04-06T05:36:21.196Z,43.94
2019-04-06T05:38:47.224Z,43.98
2019-04-06T05:41:13.257Z,43.97
2019-04-06T05:43:39.270Z,43.98
2019-04-06T05:46:05.285Z,43.98
2019-04-06T05:48:31.303Z,43.94
2019-04-06T05:50:57.325Z,43.94
2019-04-06T05:53:23.430Z,43.96
2019-04-06T05:55:49.342Z,43.97
2019-04-06T05:58:15.340Z,43.96
2019-04-06T06:00:41.548Z,43.98
2019-04-06T06:03:08.615Z,43.69
2019-04-06T06:05:33.411Z,43.17
2019-04-06T06:07:59.436Z,43.08
2019-04-06T06:10:25.488Z,42.72
2019-04-06T06:12:51.465Z,42.58
2019-04-06T06:15:17.601Z,42.73
2019-04-06T06:17:43.655Z,43.31
2019-04-06T06:20:09.648Z,43.35
2019-04-06T06:22:35.670Z,43.26
2019-04-06T06:25:01.722Z,43.06
2019-04-06T06:27:27.691Z,43.11
2019-04-06T06:29:53.724Z,42.95
2019-04-06T06:32:19.749Z,42.92
2019-04-06T06:34:45.775Z,43.09
2019-04-06T06:37:11.887Z,42.59
2019-04-06T06:39:37.898Z,42.62
2019-04-06T06:42:04.057Z,42.48
2019-04-06T06:44:29.936Z,42.65
2019-04-06T06:46:55.950Z,42.81
2019-04-06T06:49:21.958Z,42.92
2019-04-06T06:51:48.002Z,42.91
2019-04-06T06:54:14.155Z,42.86
2019-04-06T06:56:40.008Z,42.31
2019-04-06T06:59:06.027Z,42.74
2019-04-06T07:01:32.037Z,42.58
2019-04-06T07:03:58.052Z,42.38
2019-04-06T07:06:24.077Z,42.86
2019-04-06T07:08:50.334Z,42.77
2019-04-06T07:11:16.144Z,42.95
2019-04-06T07:13:42.203Z,43.18
2019-04-06T07:16:08.203Z,43.22
2019-04-06T07:18:34.214Z,43.36
2019-04-06T07:21:00.457Z,43.39
2019-04-06T07:23:26.483Z,43.37
2019-04-06T07:25:58.611Z,43.46
2019-04-06T07:28:18.259Z,43.73
2019-04-06T07:30:44.391Z,43.98
2019-04-06T07:33:10.273Z,44.08
2019-04-06T07:35:36.315Z,44.02
2019-04-06T07:38:02.313Z,44.11
2019-04-06T07:40:28.321Z,44.40
2019-04-06T07:42:54.320Z,44.51
2019-04-06T07:45:20.366Z,44.68
2019-04-06T07:47:46.332Z,44.69
2019-04-06T07:50:12.432Z,44.76
2019-04-06T07:52:38.461Z,44.89
2019-04-06T07:55:04.459Z,44.61
2019-04-06T07:57:30.504Z,44.65
2019-04-06T07:59:56.523Z,44.56
2019-04-06T08:02:22.535Z,44.45
2019-04-06T08:04:48.554Z,44.46
2019-04-06T08:07:14.563Z,44.41
2019-04-06T08:09:40.856Z,44.43
2019-04-06T08:12:06.706Z,44.31
2019-04-06T08:14:33.701Z,44.28
2019-04-06T08:16:59.709Z,44.28
2019-04-06T08:19:25.635Z,44.25
2019-04-06T08:21:51.634Z,44.25
2019-04-06T08:24:19.012Z,44.22
2019-04-06T08:26:46.211Z,44.25
2019-04-06T08:29:12.742Z,44.24
2019-04-06T08:31:38.768Z,44.21
2019-04-06T08:34:07.733Z,44.19
2019-04-06T08:36:36.876Z,44.16
2019-04-06T08:39:02.881Z,44.12
2019-04-06T08:41:28.878Z,44.08
2019-04-06T08:43:54.894Z,44.06
2019-04-06T08:46:20.901Z,44.06
2019-04-06T08:48:46.919Z,44.03
2019-04-06T08:51:12.952Z,44.00
2019-04-06T08:53:38.950Z,44.00
2019-04-06T08:56:04.954Z,43.98
2019-04-06T08:58:30.979Z,43.98
2019-04-06T09:00:56.990Z,43.97
2019-04-06T09:03:23.014Z,43.96
2019-04-06T09:05:49.110Z,44.01
2019-04-06T09:08:15.114Z,44.03
2019-04-06T09:10:41.106Z,44.06
2019-04-06T09:13:07.148Z,44.10
2019-04-06T09:15:33.145Z,44.12
2019-04-06T09:17:59.251Z,44.13
2019-04-06T09:20:25.282Z,44.18
2019-04-06T09:22:51.278Z,44.22
2019-04-06T09:25:17.297Z,44.21
2019-04-06T09:27:43.318Z,44.33
2019-04-06T09:30:09.365Z,44.55
2019-04-06T09:32:35.626Z,44.88
2019-04-06T09:35:01.437Z,44.79
2019-04-06T09:37:27.445Z,45.09
2019-04-06T09:39:53.477Z,45.38
2019-04-06T09:42:19.482Z,45.53
2019-04-06T09:44:45.472Z,45.26
2019-04-06T09:47:11.496Z,45.91
2019-04-06T09:49:37.488Z,45.92
2019-04-06T09:52:03.500Z,45.95
2019-04-06T09:54:29.539Z,46.02
2019-04-06T09:56:55.929Z,46.04
2019-04-06T09:59:33.993Z,45.99
2019-04-06T10:01:47.904Z,46.29
2019-04-06T10:04:14.133Z,46.05
2019-04-06T10:06:39.938Z,46.33
2019-04-06T10:09:06.083Z,46.40
2019-04-06T10:11:31.972Z,46.43
2019-04-06T10:13:58.113Z,46.63
2019-04-06T10:16:24.126Z,46.08
2019-04-06T10:18:50.123Z,46.29
2019-04-06T10:21:16.364Z,46.49
2019-04-06T10:23:42.772Z,46.69
2019-04-06T10:26:09.376Z,46.47
2019-04-06T10:28:35.477Z,46.70
2019-04-06T10:31:01.417Z,46.63
2019-04-06T10:33:27.436Z,46.67
2019-04-06T10:35:53.472Z,46.66
2019-04-06T10:38:19.462Z,46.89
2019-04-06T10:40:45.456Z,46.81
2019-04-06T10:43:11.569Z,47.05
2019-04-06T10:45:37.644Z,46.82
2019-04-06T10:48:03.660Z,47.01
2019-04-06T10:50:29.664Z,46.95
2019-04-06T10:52:55.681Z,47.03
2019-04-06T10:55:21.797Z,47.00
2019-04-06T10:57:47.871Z,46.80
2019-04-06T11:00:13.838Z,47.20
2019-04-06T11:02:39.855Z,47.19
2019-04-06T11:05:05.875Z,46.89
2019-04-06T11:07:31.925Z,46.91
2019-04-06T11:09:57.923Z,47.04
2019-04-06T11:12:24.013Z,46.94
2019-04-06T11:14:50.193Z,46.93
2019-04-06T11:17:15.990Z,46.77
2019-04-06T11:19:41.984Z,47.07
2019-04-06T11:22:08.014Z,46.95
2019-04-06T11:24:34.120Z,47.01
2019-04-06T11:27:00.194Z,47.03
2019-04-06T11:29:26.234Z,46.91
2019-04-06T11:31:52.251Z,47.07
2019-04-06T11:34:18.250Z,46.91
2019-04-06T11:36:44.359Z,47.01
2019-04-06T11:39:10.342Z,47.19
2019-04-06T11:41:40.667Z,47.13
2019-04-06T11:44:10.253Z,47.09
2019-04-06T11:46:38.442Z,46.85
2019-04-06T11:49:04.458Z,46.65
2019-04-06T11:51:30.437Z,46.88
2019-04-06T11:54:03.606Z,46.70
2019-04-06T11:56:29.623Z,47.14
2019-04-06T11:58:55.803Z,47.04
2019-04-06T12:01:27.624Z,46.62
2019-04-06T12:03:55.760Z,46.89
2019-04-06T12:06:27.690Z,46.53
2019-04-06T12:08:53.715Z,46.91
2019-04-06T12:11:19.992Z,46.68
2019-04-06T12:13:46.009Z,46.55
2019-04-06T12:16:12.294Z,46.67
2019-04-06T12:18:39.181Z,46.63
2019-04-06T12:21:06.335Z,46.93
2019-04-06T12:23:33.434Z,46.46
2019-04-06T12:26:03.617Z,47.10
2019-04-06T12:28:29.992Z,46.91
2019-04-06T12:30:56.021Z,46.90
2019-04-06T12:33:21.884Z,47.34
2019-04-06T12:35:53.247Z,47.07
2019-04-06T12:38:21.447Z,47.66
2019-04-06T12:40:47.650Z,47.15
2019-04-06T12:43:17.364Z,47.62
2019-04-06T12:45:43.371Z,47.78
2019-04-06T12:48:09.682Z,47.71
2019-04-06T12:50:35.452Z,47.45
2019-04-06T12:53:01.557Z,47.25
2019-04-06T12:55:27.463Z,46.93
2019-04-06T12:57:53.451Z,47.19
2019-04-06T13:00:19.537Z,47.03
2019-04-06T13:02:45.547Z,47.18
2019-04-06T13:05:13.316Z,47.19
2019-04-06T13:07:37.587Z,46.72
2019-04-06T13:10:03.716Z,46.68
2019-04-06T13:12:29.623Z,46.70
2019-04-06T13:14:55.679Z,46.74
2019-04-06T13:17:21.632Z,46.34
2019-04-06T13:19:47.657Z,46.32
2019-04-06T13:22:14.245Z,46.40
2019-04-06T13:24:40.330Z,46.36
2019-04-06T13:27:06.410Z,46.40
2019-04-06T13:29:32.318Z,46.24
2019-04-06T13:31:58.347Z,46.33
2019-04-06T13:34:24.376Z,46.31
2019-04-06T13:37:01.607Z,46.22
2019-04-06T13:39:27.660Z,46.16
2019-04-06T13:41:53.732Z,46.10
2019-04-06T13:44:19.746Z,46.18
2019-04-06T13:46:45.751Z,46.06
2019-04-06T13:49:12.604Z,46.17
2019-04-06T13:51:38.626Z,46.17
2019-04-06T13:54:04.620Z,46.21
2019-04-06T13:56:30.793Z,46.13
2019-04-06T13:58:56.629Z,45.99
2019-04-06T14:01:22.672Z,46.09
2019-04-06T14:03:48.685Z,46.08
2019-04-06T14:06:14.686Z,46.07
2019-04-06T14:08:40.720Z,45.92
2019-04-06T14:11:06.755Z,46.02
2019-04-06T14:13:32.750Z,45.96
2019-04-06T14:15:59.154Z,45.96
2019-04-06T14:18:24.813Z,45.84
2019-04-06T14:20:51.090Z,45.86
2019-04-06T14:23:16.886Z,45.77
2019-04-06T14:25:42.848Z,45.78
2019-04-06T14:28:09.853Z,45.68
2019-04-06T14:30:34.942Z,45.63
2019-04-06T14:33:00.952Z,45.62
2019-04-06T14:35:26.954Z,45.59
2019-04-06T14:37:52.947Z,45.58
2019-04-06T14:40:19.321Z,45.54
2019-04-06T14:42:44.980Z,45.47
2019-04-06T14:45:11.341Z,45.52
2019-04-06T14:47:37.107Z,45.58
2019-04-06T14:50:03.323Z,45.63
2019-04-06T14:52:29.356Z,45.70
2019-04-06T14:54:55.572Z,45.96
2019-04-06T14:57:21.474Z,45.95
2019-04-06T14:59:47.234Z,45.86
2019-04-06T15:02:14.041Z,45.89
2019-04-06T15:04:39.624Z,45.95
2019-04-06T15:07:11.619Z,46.17
2019-04-06T15:09:32.163Z,46.05
2019-04-06T15:11:58.096Z,46.19
2019-04-06T15:14:23.948Z,46.65
2019-04-06T15:16:50.190Z,46.63
2019-04-06T15:19:17.697Z,46.73
2019-04-06T15:21:42.380Z,46.90
2019-04-06T15:24:08.382Z,46.80
2019-04-06T15:26:34.399Z,46.68
2019-04-06T15:29:01.464Z,46.74
2019-04-06T15:31:26.809Z,46.65
2019-04-06T15:33:52.775Z,46.48
2019-04-06T15:36:18.796Z,46.73
2019-04-06T15:38:44.807Z,46.65
2019-04-06T15:41:11.166Z,46.71
2019-04-06T15:43:37.558Z,46.65
2019-04-06T15:46:02.859Z,46.63
2019-04-06T15:48:37.387Z,46.71
2019-04-06T15:50:54.865Z,46.49
2019-04-06T15:53:20.878Z,46.60
2019-04-06T15:55:49.001Z,46.89
2019-04-06T15:58:19.412Z,46.91
2019-04-06T16:00:45.893Z,47.20
2019-04-06T16:03:12.364Z,47.55
2019-04-06T16:05:39.028Z,47.50
2019-04-06T16:08:05.393Z,47.49
2019-04-06T16:10:31.768Z,47.36
2019-04-06T16:12:58.119Z,47.27
2019-04-06T16:15:23.784Z,47.28
2019-04-06T16:17:49.806Z,47.08
2019-04-06T16:20:15.808Z,47.08
2019-04-06T16:22:43.044Z,47.16
2019-04-06T16:25:08.718Z,46.81
2019-04-06T16:27:34.959Z,46.70
2019-04-06T16:30:02.332Z,47.01
2019-04-06T16:32:33.527Z,46.85
2019-04-06T16:34:53.627Z,46.85
2019-04-06T16:37:19.638Z,46.80
2019-04-06T16:39:45.786Z,46.78
2019-04-06T16:42:12.113Z,46.67
2019-04-06T16:44:37.722Z,46.48
2019-04-06T16:47:03.745Z,46.50
2019-04-06T16:49:29.949Z,46.42
2019-04-06T16:51:56.522Z,46.25
2019-04-06T16:54:24.713Z,46.37
2019-04-06T16:56:51.901Z,46.20
2019-04-06T16:59:17.911Z,46.19
2019-04-06T17:01:43.933Z,46.23
2019-04-06T17:04:11.300Z,46.69
2019-04-06T17:06:38.133Z,46.84
2019-04-06T17:09:05.358Z,47.36
2019-04-06T17:11:31.451Z,47.70
2019-04-06T17:13:57.849Z,48.00
2019-04-06T17:16:23.592Z,48.23
2019-04-06T17:18:50.279Z,48.03
2019-04-06T17:24:05.454Z,48.43
2019-04-06T17:26:31.167Z,48.59
2019-04-06T17:28:57.661Z,48.66
2019-04-06T17:31:23.415Z,48.76
2019-04-06T17:33:49.517Z,48.33
2019-04-06T17:36:26.334Z,48.77
2019-04-06T17:38:53.298Z,48.72
2019-04-06T17:41:19.407Z,49.11
2019-04-06T17:43:47.373Z,49.29
2019-04-06T17:46:11.666Z,49.02
2019-04-06T17:48:37.676Z,49.26
2019-04-06T17:51:05.926Z,48.70
2019-04-06T17:53:31.953Z,49.04
2019-04-06T17:56:00.338Z,48.60
2019-04-06T17:58:26.345Z,49.13
2019-04-06T18:00:52.686Z,49.21
2019-04-06T18:03:19.230Z,49.02
2019-04-06T18:05:45.180Z,49.23
2019-04-06T18:08:11.191Z,48.82
2019-04-06T18:10:37.372Z,49.11
2019-04-06T18:13:03.879Z,49.24
2019-04-06T18:15:29.912Z,48.94
2019-04-06T18:17:56.108Z,48.77
2019-04-06T18:20:22.047Z,48.73
2019-04-06T18:22:48.321Z,49.13
2019-04-06T18:25:13.996Z,48.92
2019-04-06T18:27:40.036Z,49.04
2019-04-06T18:30:06.054Z,49.04
2019-04-06T18:32:32.454Z,48.63
2019-04-06T18:34:58.154Z,48.72
2019-04-06T18:37:24.501Z,49.13
2019-04-06T18:39:50.144Z,48.98
2019-04-06T18:42:16.382Z,48.73
2019-04-06T18:44:42.412Z,48.77
2019-04-06T18:47:08.609Z,49.07
2019-04-06T18:49:34.479Z,48.79
2019-04-06T18:52:00.614Z,48.41
2019-04-06T18:54:26.630Z,48.83
2019-04-06T18:56:52.649Z,48.84
2019-04-06T18:59:18.688Z,48.70
2019-04-06T19:01:44.902Z,48.45
2019-04-06T19:04:10.814Z,48.50
2019-04-06T19:06:37.283Z,48.55
2019-04-06T19:09:02.846Z,48.51
2019-04-06T19:11:28.881Z,48.41
2019-04-06T19:13:54.888Z,48.29
2019-04-06T19:16:20.927Z,48.26
2019-04-06T19:18:47.708Z,48.21
2019-04-06T19:21:13.954Z,48.10
2019-04-06T19:23:39.395Z,48.31
2019-04-06T19:26:05.452Z,48.55
2019-04-06T19:28:31.495Z,48.45
2019-04-06T19:30:57.616Z,48.37
2019-04-06T19:33:25.844Z,48.17
2019-04-06T19:35:49.565Z,48.48
2019-04-06T19:38:15.759Z,47.99
2019-04-06T19:40:41.787Z,48.22
2019-04-06T19:43:07.829Z,47.76
2019-04-06T19:45:33.859Z,48.02
2019-04-06T19:47:59.866Z,47.93
2019-04-06T19:50:25.952Z,47.90
2019-04-06T19:52:51.912Z,47.72
2019-04-06T19:55:18.164Z,47.77
2019-04-06T19:57:44.009Z,47.70
2019-04-06T20:00:10.012Z,47.50
2019-04-06T20:02:36.050Z,47.50
2019-04-06T20:05:02.064Z,47.51
2019-04-06T20:07:28.668Z,47.46
2019-04-06T20:09:54.151Z,47.42
2019-04-06T20:12:20.215Z,47.39
2019-04-06T20:14:46.265Z,47.25
2019-04-06T20:17:12.274Z,47.35
2019-04-06T20:19:38.288Z,47.38
2019-04-06T20:22:04.369Z,47.43
2019-04-06T20:24:30.391Z,47.35
2019-04-06T20:26:56.426Z,47.32
2019-04-06T20:29:22.452Z,47.10
2019-04-06T20:31:48.492Z,47.02
2019-04-06T20:34:14.587Z,47.18
2019-04-06T20:36:40.839Z,47.09
2019-04-06T20:39:06.581Z,47.20
2019-04-06T20:41:32.652Z,47.08
2019-04-06T20:43:58.661Z,47.12
2019-04-06T20:46:24.830Z,47.25
2019-04-06T20:48:51.085Z,47.05
2019-04-06T20:51:16.732Z,47.01
2019-04-06T20:53:43.153Z,47.14
2019-04-06T20:56:08.743Z,47.14
2019-04-06T20:58:34.751Z,46.93
2019-04-06T21:01:00.743Z,46.92
2019-04-06T21:03:26.864Z,46.96
2019-04-06T21:05:52.864Z,46.78
2019-04-06T21:08:18.895Z,46.96
2019-04-06T21:10:45.628Z,46.92
2019-04-06T21:13:11.181Z,46.90
2019-04-06T21:15:36.978Z,46.87
2019-04-06T21:18:03.027Z,46.89
2019-04-06T21:20:29.012Z,46.77
2019-04-06T21:22:55.131Z,46.87
2019-04-06T21:25:21.130Z,46.87
2019-04-06T21:27:47.087Z,46.81
2019-04-06T21:30:13.528Z,46.88
2019-04-06T21:32:39.115Z,46.87
2019-04-06T21:35:05.493Z,46.71
2019-04-06T21:37:31.130Z,46.79
2019-04-06T21:39:57.766Z,46.87
2019-04-06T21:42:23.207Z,46.67
2019-04-06T21:44:49.226Z,46.81
2019-04-06T21:47:15.253Z,46.91
2019-04-06T21:49:41.271Z,46.97
2019-04-06T21:52:07.575Z,46.81
2019-04-06T21:54:34.397Z,46.76
2019-04-06T21:56:59.354Z,46.75
2019-04-06T21:59:25.735Z,46.64
2019-04-06T22:01:51.332Z,46.73
2019-04-06T22:04:23.583Z,46.83
2019-04-06T22:06:43.335Z,46.82
2019-04-06T22:09:09.503Z,46.78
2019-04-06T22:11:35.448Z,46.68
2019-04-06T22:14:01.847Z,46.92
2019-04-06T22:16:27.348Z,46.85
2019-04-06T22:18:53.653Z,46.86
2019-04-06T22:21:19.349Z,46.89
2019-04-06T22:23:46.072Z,46.88
2019-04-06T22:26:11.399Z,46.82
2019-04-06T22:28:37.599Z,46.80
2019-04-06T22:31:03.433Z,46.73
2019-04-06T22:33:29.883Z,46.89
2019-04-06T22:35:55.734Z,46.88
2019-04-06T22:38:21.657Z,46.78
2019-04-06T22:40:47.606Z,46.82
2019-04-06T22:43:13.504Z,46.84
2019-04-06T22:45:39.514Z,46.79
2019-04-06T22:48:05.514Z,46.74
2019-04-06T22:50:31.523Z,46.81
2019-04-06T22:52:57.553Z,46.76
2019-04-06T22:55:24.192Z,46.78
2019-04-06T22:57:49.834Z,46.78
2019-04-06T23:00:17.469Z,46.77
2019-04-06T23:02:41.771Z,46.72
2019-04-06T23:05:07.763Z,46.59
2019-04-06T23:07:33.767Z,46.59
2019-04-06T23:09:59.991Z,46.65
2019-04-06T23:12:26.152Z,46.61
2019-04-06T23:14:52.183Z,46.56
2019-04-06T23:17:18.002Z,46.70
2019-04-06T23:19:44.240Z,46.67
2019-04-06T23:22:10.305Z,46.57
2019-04-06T23:24:36.327Z,46.49
2019-04-06T23:27:02.374Z,46.47
2019-04-06T23:29:28.017Z,46.45
2019-04-06T23:31:54.374Z,46.41
2019-04-06T23:34:20.314Z,46.36
2019-04-06T23:36:46.341Z,46.33
2019-04-06T23:39:12.343Z,46.28
2019-04-06T23:41:37.972Z,46.26
2019-04-06T23:44:04.146Z,46.23
2019-04-06T23:46:30.163Z,46.21
2019-04-06T23:48:56.015Z,46.17
2019-04-06T23:51:22.198Z,46.13
2019-04-06T23:53:48.099Z,46.11
2019-04-06T23:56:14.096Z,46.10
2019-04-06T23:58:40.081Z,46.08
